Station Historical Data
Daily Summary for October 07, 2017 Units:  Both    English   Metric
« Previous Day
Next Day »
Daily Weekly Monthly Yearly Custom
  High: Low: Average:
Temperature: 80.9 °F /  27.2 °C 70.7 °F /  21.5 °C 74.5 °F /  23.6 °C
Dew Point: 71.1 °F /  21.7 °C 63.9 °F /  17.7 °C 68.7 °F /  20.4 °C
Humidity: 91% 70% 83%
Wind Speed: 12.0mph /  19.3km/h - 9.3mph /  15km/h
Wind Gust: 12.0mph /  19.3km/h - -
Wind- - ESE
Pressure: 30.04 in /  1017.2 hPa 29.92 in /  1013.1 hPa -
Precipitation: 0.00 in /  0 mm    
Historical Graphs
 
 
Tabular Data for October 07, 2017
Time Temperature Dew Point Pressure Wind Wind Speed Wind Gust Humidity Rainfall Rate (Hourly) Conditions
00:00 71.2 °F /  21.8 °C 64.3 °F /  17.9 °C 30.03in /  1016.8hPa East 6.0mph /  9.7km/h 6.0mph /  9.7km/h 79% 0.00in /  0mm OVC
00:05 71.2 °F /  21.8 °C 64.4 °F /  18 °C 30.03in /  1016.8hPa East 6.0mph /  9.7km/h 6.0mph /  9.7km/h 79% 0.00in /  0mm OVC
00:10 71.2 °F /  21.8 °C 64.4 °F /  18 °C 30.03in /  1016.8hPa East 6.0mph /  9.7km/h 6.0mph /  9.7km/h 79% 0.00in /  0mm OVC
00:15 71.2 °F /  21.8 °C 64.4 °F /  18 °C 30.03in /  1016.8hPa East 6.0mph /  9.7km/h 6.0mph /  9.7km/h 79% 0.00in /  0mm OVC
00:20 71.1 °F /  21.7 °C 63.9 °F /  17.7 °C 30.03in /  1016.8hPa East 6.0mph /  9.7km/h 6.0mph /  9.7km/h 78% 0.00in /  0mm OVC
00:25 71.0 °F /  21.7 °C 64.2 °F /  17.9 °C 30.03in /  1016.8hPa East 6.0mph /  9.7km/h 6.0mph /  9.7km/h 79% 0.00in /  0mm OVC
00:30 70.9 °F /  21.6 °C 64.1 °F /  17.8 °C 30.03in /  1016.8hPa East 6.0mph /  9.7km/h 6.0mph /  9.7km/h 79% 0.00in /  0mm OVC
00:40 70.9 °F /  21.6 °C 64.0 °F /  17.8 °C 30.03in /  1016.8hPa East 6.0mph /  9.7km/h 6.0mph /  9.7km/h 79% 0.00in /  0mm OVC
00:45 70.8 °F /  21.6 °C 64.0 °F /  17.8 °C 30.03in /  1016.8hPa East 6.0mph /  9.7km/h 6.0mph /  9.7km/h 79% 0.00in /  0mm OVC
00:50 70.9 °F /  21.6 °C 64.1 °F /  17.8 °C 30.02in /  1016.5hPa East 6.0mph /  9.7km/h 6.0mph /  9.7km/h 79% 0.00in /  0mm OVC
00:55 70.9 °F /  21.6 °C 64.1 °F /  17.8 °C 30.02in /  1016.5hPa East 6.0mph /  9.7km/h 6.0mph /  9.7km/h 79% 0.00in /  0mm OVC
01:00 70.9 °F /  21.6 °C 64.1 °F /  17.8 °C 30.02in /  1016.5hPa East 6.0mph /  9.7km/h 6.0mph /  9.7km/h 79% 0.00in /  0mm OVC
01:05 70.9 °F /  21.6 °C 64.1 °F /  17.8 °C 30.02in /  1016.5hPa East 6.0mph /  9.7km/h 6.0mph /  9.7km/h 79% 0.00in /  0mm OVC
01:10 71.0 °F /  21.7 °C 64.2 °F /  17.9 °C 30.02in /  1016.5hPa East 6.0mph /  9.7km/h 6.0mph /  9.7km/h 79% 0.00in /  0mm OVC
01:15 71.2 °F /  21.8 °C 64.7 °F /  18.2 °C 30.02in /  1016.5hPa ESE 6.0mph /  9.7km/h 6.0mph /  9.7km/h 80% 0.00in /  0mm BKN
01:20 71.3 °F /  21.8 °C 64.8 °F /  18.2 °C 30.02in /  1016.5hPa ESE 6.0mph /  9.7km/h 6.0mph /  9.7km/h 80% 0.00in /  0mm BKN
01:25 71.4 °F /  21.9 °C 64.9 °F /  18.3 °C 30.02in /  1016.5hPa ESE 12.0mph /  19.3km/h 12.0mph /  19.3km/h 80% 0.00in /  0mm SCT
01:30 71.6 °F /  22 °C 65.1 °F /  18.4 °C 30.01in /  1016.1hPa ESE 12.0mph /  19.3km/h 12.0mph /  19.3km/h 80% 0.00in /  0mm SCT
01:35 71.6 °F /  22 °C 65.1 °F /  18.4 °C 30.01in /  1016.1hPa ESE 12.0mph /  19.3km/h 12.0mph /  19.3km/h 80% 0.00in /  0mm SCT
01:40 71.7 °F /  22.1 °C 65.2 °F /  18.4 °C 30.01in /  1016.1hPa ESE 12.0mph /  19.3km/h 12.0mph /  19.3km/h 80% 0.00in /  0mm SCT
01:45 71.7 °F /  22.1 °C 65.2 °F /  18.4 °C 30.01in /  1016.1hPa ESE 12.0mph /  19.3km/h 12.0mph /  19.3km/h 80% 0.00in /  0mm SCT
01:50 71.8 °F /  22.1 °C 65.3 °F /  18.5 °C 30.01in /  1016.1hPa ESE 12.0mph /  19.3km/h 12.0mph /  19.3km/h 80% 0.00in /  0mm SCT
01:55 72.0 °F /  22.2 °C 65.8 °F /  18.8 °C 30.01in /  1016.1hPa ESE 12.0mph /  19.3km/h 12.0mph /  19.3km/h 81% 0.00in /  0mm SCT
02:00 72.2 °F /  22.3 °C 66.0 °F /  18.9 °C 30.01in /  1016.1hPa ESE 12.0mph /  19.3km/h 12.0mph /  19.3km/h 81% 0.00in /  0mm SCT
02:05 72.2 °F /  22.3 °C 66.0 °F /  18.9 °C 30.01in /  1016.1hPa ESE 12.0mph /  19.3km/h 12.0mph /  19.3km/h 81% 0.00in /  0mm SCT
02:15 72.3 °F /  22.4 °C 66.1 °F /  18.9 °C 30.01in /  1016.1hPa ESE 12.0mph /  19.3km/h 12.0mph /  19.3km/h 81% 0.00in /  0mm SCT
02:20 72.3 °F /  22.4 °C 66.1 °F /  18.9 °C 30.00in /  1015.8hPa ESE 12.0mph /  19.3km/h 12.0mph /  19.3km/h 81% 0.00in /  0mm SCT
02:25 72.4 °F /  22.4 °C 66.2 °F /  19 °C 30.00in /  1015.8hPa ESE 12.0mph /  19.3km/h 12.0mph /  19.3km/h 81% 0.00in /  0mm SCT
02:30 72.4 °F /  22.4 °C 66.2 °F /  19 °C 30.00in /  1015.8hPa ESE 12.0mph /  19.3km/h 12.0mph /  19.3km/h 81% 0.00in /  0mm SCT
02:40 72.4 °F /  22.4 °C 66.2 °F /  19 °C 30.00in /  1015.8hPa ESE 12.0mph /  19.3km/h 12.0mph /  19.3km/h 81% 0.00in /  0mm SCT
02:45 72.4 °F /  22.4 °C 66.6 °F /  19.2 °C 30.00in /  1015.8hPa ESE 10.0mph /  16.1km/h 12.0mph /  19.3km/h 82% 0.00in /  0mm BKN
02:50 72.4 °F /  22.4 °C 66.6 °F /  19.2 °C 30.00in /  1015.8hPa ESE 10.0mph /  16.1km/h 10.0mph /  16.1km/h 82% 0.00in /  0mm BKN
02:55 72.3 °F /  22.4 °C 66.5 °F /  19.2 °C 30.00in /  1015.8hPa ESE 10.0mph /  16.1km/h 10.0mph /  16.1km/h 82% 0.00in /  0mm BKN
03:05 72.3 °F /  22.4 °C 66.5 °F /  19.2 °C 30.00in /  1015.8hPa ESE 10.0mph /  16.1km/h 10.0mph /  16.1km/h 82% 0.00in /  0mm BKN
03:10 72.2 °F /  22.3 °C 66.8 °F /  19.3 °C 30.00in /  1015.8hPa ESE 10.0mph /  16.1km/h 10.0mph /  16.1km/h 83% 0.00in /  0mm BKN
03:15 72.2 °F /  22.3 °C 66.7 °F /  19.3 °C 30.00in /  1015.8hPa ESE 9.0mph /  14.5km/h 10.0mph /  16.1km/h 83% 0.00in /  0mm FEW
03:20 72.1 °F /  22.3 °C 67.0 °F /  19.4 °C 30.00in /  1015.8hPa ESE 9.0mph /  14.5km/h 9.0mph /  14.5km/h 84% 0.00in /  0mm FEW
03:30 72.0 °F /  22.2 °C 66.9 °F /  19.4 °C 29.99in /  1015.5hPa ESE 9.0mph /  14.5km/h 9.0mph /  14.5km/h 84% 0.00in /  0mm FEW
03:35 72.0 °F /  22.2 °C 67.2 °F /  19.6 °C 29.99in /  1015.5hPa ESE 9.0mph /  14.5km/h 9.0mph /  14.5km/h 85% 0.00in /  0mm FEW
03:40 72.0 °F /  22.2 °C 67.2 °F /  19.6 °C 29.99in /  1015.5hPa ESE 9.0mph /  14.5km/h 9.0mph /  14.5km/h 85% 0.00in /  0mm FEW
03:45 72.0 °F /  22.2 °C 67.2 °F /  19.6 °C 29.99in /  1015.5hPa ESE 9.0mph /  14.5km/h 9.0mph /  14.5km/h 85% 0.00in /  0mm FEW
03:50 72.0 °F /  22.2 °C 67.2 °F /  19.6 °C 29.99in /  1015.5hPa ESE 9.0mph /  14.5km/h 9.0mph /  14.5km/h 85% 0.00in /  0mm FEW
03:55 72.0 °F /  22.2 °C 67.2 °F /  19.6 °C 29.99in /  1015.5hPa ESE 9.0mph /  14.5km/h 9.0mph /  14.5km/h 85% 0.00in /  0mm FEW
04:00 71.9 °F /  22.2 °C 67.1 °F /  19.5 °C 29.99in /  1015.5hPa ESE 9.0mph /  14.5km/h 9.0mph /  14.5km/h 85% 0.00in /  0mm FEW
04:05 71.7 °F /  22.1 °C 67.0 °F /  19.4 °C 29.99in /  1015.5hPa ESE 9.0mph /  14.5km/h 9.0mph /  14.5km/h 85% 0.00in /  0mm FEW
04:10 71.6 °F /  22 °C 67.2 °F /  19.6 °C 29.99in /  1015.5hPa ESE 9.0mph /  14.5km/h 9.0mph /  14.5km/h 86% 0.00in /  0mm FEW
04:15 71.6 °F /  22 °C 67.2 °F /  19.6 °C 29.99in /  1015.5hPa ESE 10.0mph /  16.1km/h 10.0mph /  16.1km/h 86% 0.00in /  0mm OVC
04:20 71.6 °F /  22 °C 67.2 °F /  19.6 °C 29.99in /  1015.5hPa ESE 10.0mph /  16.1km/h 10.0mph /  16.1km/h 86% 0.00in /  0mm OVC
04:25 71.6 °F /  22 °C 67.2 °F /  19.6 °C 29.98in /  1015.1hPa ESE 10.0mph /  16.1km/h 10.0mph /  16.1km/h 86% 0.00in /  0mm OVC
04:30 71.6 °F /  22 °C 67.2 °F /  19.6 °C 29.98in /  1015.1hPa ESE 10.0mph /  16.1km/h 10.0mph /  16.1km/h 86% 0.00in /  0mm OVC
04:35 71.6 °F /  22 °C 67.2 °F /  19.6 °C 29.98in /  1015.1hPa ESE 10.0mph /  16.1km/h 10.0mph /  16.1km/h 86% 0.00in /  0mm OVC
04:40 71.6 °F /  22 °C 67.2 °F /  19.6 °C 29.98in /  1015.1hPa ESE 10.0mph /  16.1km/h 10.0mph /  16.1km/h 86% 0.00in /  0mm OVC
04:45 71.6 °F /  22 °C 67.2 °F /  19.6 °C 29.98in /  1015.1hPa ESE 10.0mph /  16.1km/h 10.0mph /  16.1km/h 86% 0.00in /  0mm OVC
04:50 71.6 °F /  22 °C 67.2 °F /  19.6 °C 29.98in /  1015.1hPa ESE 10.0mph /  16.1km/h 10.0mph /  16.1km/h 86% 0.00in /  0mm OVC
04:55 71.6 °F /  22 °C 67.2 °F /  19.6 °C 29.98in /  1015.1hPa ESE 10.0mph /  16.1km/h 10.0mph /  16.1km/h 86% 0.00in /  0mm OVC
05:00 71.6 °F /  22 °C 67.2 °F /  19.6 °C 29.98in /  1015.1hPa ESE 10.0mph /  16.1km/h 10.0mph /  16.1km/h 86% 0.00in /  0mm OVC
05:05 71.6 °F /  22 °C 67.2 °F /  19.6 °C 29.98in /  1015.1hPa ESE 10.0mph /  16.1km/h 10.0mph /  16.1km/h 86% 0.00in /  0mm OVC
05:10 71.6 °F /  22 °C 67.2 °F /  19.6 °C 29.98in /  1015.1hPa ESE 10.0mph /  16.1km/h 10.0mph /  16.1km/h 86% 0.00in /  0mm OVC
05:15 71.6 °F /  22 °C 67.2 °F /  19.6 °C 29.98in /  1015.1hPa ESE 8.0mph /  12.9km/h 10.0mph /  16.1km/h 86% 0.00in /  0mm OVC
05:20 71.6 °F /  22 °C 67.2 °F /  19.6 °C 29.99in /  1015.5hPa ESE 8.0mph /  12.9km/h 8.0mph /  12.9km/h 86% 0.00in /  0mm OVC
05:25 71.6 °F /  22 °C 67.5 °F /  19.7 °C 29.99in /  1015.5hPa ESE 8.0mph /  12.9km/h 8.0mph /  12.9km/h 87% 0.00in /  0mm OVC
05:30 71.5 °F /  21.9 °C 67.4 °F /  19.7 °C 29.99in /  1015.5hPa ESE 8.0mph /  12.9km/h 8.0mph /  12.9km/h 87% 0.00in /  0mm OVC
05:40 71.5 °F /  21.9 °C 67.4 °F /  19.7 °C 29.99in /  1015.5hPa ESE 8.0mph /  12.9km/h 8.0mph /  12.9km/h 87% 0.00in /  0mm OVC
05:45 71.5 °F /  21.9 °C 67.4 °F /  19.7 °C 29.99in /  1015.5hPa ESE 8.0mph /  12.9km/h 8.0mph /  12.9km/h 87% 0.00in /  0mm OVC
05:50 71.5 °F /  21.9 °C 67.4 °F /  19.7 °C 29.99in /  1015.5hPa ESE 8.0mph /  12.9km/h 8.0mph /  12.9km/h 87% 0.00in /  0mm OVC
05:55 71.5 °F /  21.9 °C 67.4 °F /  19.7 °C 29.99in /  1015.5hPa ESE 8.0mph /  12.9km/h 8.0mph /  12.9km/h 87% 0.00in /  0mm OVC
06:00 71.5 °F /  21.9 °C 67.4 °F /  19.7 °C 29.99in /  1015.5hPa ESE 8.0mph /  12.9km/h 8.0mph /  12.9km/h 87% 0.00in /  0mm OVC
06:05 71.5 °F /  21.9 °C 67.4 °F /  19.7 °C 29.99in /  1015.5hPa ESE 8.0mph /  12.9km/h 8.0mph /  12.9km/h 87% 0.00in /  0mm OVC
06:15 71.5 °F /  21.9 °C 67.4 °F /  19.7 °C 29.99in /  1015.5hPa ESE 8.0mph /  12.9km/h 8.0mph /  12.9km/h 87% 0.00in /  0mm OVC
06:20 71.5 °F /  21.9 °C 67.4 °F /  19.7 °C 30.00in /  1015.8hPa ESE 8.0mph /  12.9km/h 8.0mph /  12.9km/h 87% 0.00in /  0mm OVC
06:25 71.5 °F /  21.9 °C 67.4 °F /  19.7 °C 29.99in /  1015.5hPa ESE 8.0mph /  12.9km/h 8.0mph /  12.9km/h 87% 0.00in /  0mm OVC
06:30 71.4 °F /  21.9 °C 67.3 °F /  19.6 °C 29.99in /  1015.5hPa ESE 8.0mph /  12.9km/h 8.0mph /  12.9km/h 87% 0.00in /  0mm OVC
06:35 71.4 °F /  21.9 °C 67.3 °F /  19.6 °C 29.99in /  1015.5hPa ESE 8.0mph /  12.9km/h 8.0mph /  12.9km/h 87% 0.00in /  0mm OVC
06:40 71.4 °F /  21.9 °C 67.3 °F /  19.6 °C 29.99in /  1015.5hPa ESE 8.0mph /  12.9km/h 8.0mph /  12.9km/h 87% 0.00in /  0mm OVC
06:45 71.4 °F /  21.9 °C 67.3 °F /  19.6 °C 30.00in /  1015.8hPa ESE 8.0mph /  12.9km/h 8.0mph /  12.9km/h 87% 0.00in /  0mm OVC
06:50 71.4 °F /  21.9 °C 67.3 °F /  19.6 °C 30.00in /  1015.8hPa ESE 8.0mph /  12.9km/h 8.0mph /  12.9km/h 87% 0.00in /  0mm OVC
06:55 71.4 °F /  21.9 °C 67.3 °F /  19.6 °C 30.00in /  1015.8hPa ESE 6.0mph /  9.7km/h 8.0mph /  12.9km/h 87% 0.00in /  0mm OVC
07:00 71.4 °F /  21.9 °C 67.3 °F /  19.6 °C 30.00in /  1015.8hPa ESE 6.0mph /  9.7km/h 6.0mph /  9.7km/h 87% 0.00in /  0mm OVC
07:05 71.3 °F /  21.8 °C 67.2 °F /  19.6 °C 30.00in /  1015.8hPa ESE 6.0mph /  9.7km/h 6.0mph /  9.7km/h 87% 0.00in /  0mm OVC
07:10 71.3 °F /  21.8 °C 67.2 °F /  19.6 °C 30.00in /  1015.8hPa ESE 6.0mph /  9.7km/h 6.0mph /  9.7km/h 87% 0.00in /  0mm OVC
07:15 71.3 °F /  21.8 °C 67.2 °F /  19.6 °C 30.00in /  1015.8hPa SE 12.0mph /  19.3km/h 12.0mph /  19.3km/h 87% 0.00in /  0mm OVC
07:20 71.3 °F /  21.8 °C 67.6 °F /  19.8 °C 30.00in /  1015.8hPa SE 12.0mph /  19.3km/h 12.0mph /  19.3km/h 88% 0.00in /  0mm OVC
07:25 71.3 °F /  21.8 °C 67.6 °F /  19.8 °C 30.01in /  1016.1hPa SE 12.0mph /  19.3km/h 12.0mph /  19.3km/h 88% 0.00in /  0mm OVC
07:30 71.3 °F /  21.8 °C 67.5 °F /  19.7 °C 30.00in /  1015.8hPa SE 12.0mph /  19.3km/h 12.0mph /  19.3km/h 88% 0.00in /  0mm OVC
07:40 71.2 °F /  21.8 °C 67.5 °F /  19.7 °C 30.01in /  1016.1hPa SE 12.0mph /  19.3km/h 12.0mph /  19.3km/h 88% 0.00in /  0mm OVC
07:45 71.2 °F /  21.8 °C 67.5 °F /  19.7 °C 30.01in /  1016.1hPa SE 12.0mph /  19.3km/h 12.0mph /  19.3km/h 88% 0.00in /  0mm OVC
07:50 71.2 °F /  21.8 °C 67.5 °F /  19.7 °C 30.01in /  1016.1hPa SE 12.0mph /  19.3km/h 12.0mph /  19.3km/h 88% 0.00in /  0mm OVC
07:55 71.1 °F /  21.7 °C 67.4 °F /  19.7 °C 30.01in /  1016.1hPa SE 12.0mph /  19.3km/h 12.0mph /  19.3km/h 88% 0.00in /  0mm OVC
08:00 71.1 °F /  21.7 °C 67.7 °F /  19.8 °C 30.01in /  1016.1hPa SE 12.0mph /  19.3km/h 12.0mph /  19.3km/h 89% 0.00in /  0mm OVC
08:05 71.0 °F /  21.7 °C 67.6 °F /  19.8 °C 30.02in /  1016.5hPa SE 12.0mph /  19.3km/h 12.0mph /  19.3km/h 89% 0.00in /  0mm OVC
08:10 70.9 °F /  21.6 °C 67.8 °F /  19.9 °C 30.02in /  1016.5hPa SE 12.0mph /  19.3km/h 12.0mph /  19.3km/h 90% 0.00in /  0mm OVC
08:15 70.8 °F /  21.6 °C 67.7 °F /  19.8 °C 30.02in /  1016.5hPa ESE 7.0mph /  11.3km/h 12.0mph /  19.3km/h 90% 0.00in /  0mm OVC
08:20 70.8 °F /  21.6 °C 67.7 °F /  19.8 °C 30.02in /  1016.5hPa East 7.0mph /  11.3km/h 7.0mph /  11.3km/h 90% 0.00in /  0mm OVC
08:25 70.8 °F /  21.6 °C 67.7 °F /  19.8 °C 30.02in /  1016.5hPa ESE 8.0mph /  12.9km/h 8.0mph /  12.9km/h 90% 0.00in /  0mm -DZ
08:35 70.7 °F /  21.5 °C 67.7 °F /  19.8 °C 30.03in /  1016.8hPa ESE 8.0mph /  12.9km/h 8.0mph /  12.9km/h 90% 0.00in /  0mm -DZ
08:40 70.7 °F /  21.5 °C 67.9 °F /  19.9 °C 30.03in /  1016.8hPa ESE 8.0mph /  12.9km/h 8.0mph /  12.9km/h 91% 0.00in /  0mm -DZ
08:45 70.7 °F /  21.5 °C 67.9 °F /  19.9 °C 30.03in /  1016.8hPa ESE 7.0mph /  11.3km/h 8.0mph /  12.9km/h 91% 0.00in /  0mm OVC
08:50 70.7 °F /  21.5 °C 67.9 °F /  19.9 °C 30.03in /  1016.8hPa ESE 7.0mph /  11.3km/h 7.0mph /  11.3km/h 91% 0.00in /  0mm OVC
08:55 70.8 °F /  21.6 °C 68.0 °F /  20 °C 30.03in /  1016.8hPa ESE 7.0mph /  11.3km/h 7.0mph /  11.3km/h 91% 0.00in /  0mm OVC
09:00 70.8 °F /  21.6 °C 68.0 °F /  20 °C 30.03in /  1016.8hPa ESE 7.0mph /  11.3km/h 7.0mph /  11.3km/h 91% 0.00in /  0mm OVC
09:10 70.9 °F /  21.6 °C 68.1 °F /  20.1 °C 30.03in /  1016.8hPa ESE 7.0mph /  11.3km/h 7.0mph /  11.3km/h 91% 0.00in /  0mm OVC
09:15 71.0 °F /  21.7 °C 68.2 °F /  20.1 °C 30.03in /  1016.8hPa ESE 7.0mph /  11.3km/h 7.0mph /  11.3km/h 91% 0.00in /  0mm OVC
09:20 71.1 °F /  21.7 °C 68.3 °F /  20.2 °C 30.03in /  1016.8hPa East 7.0mph /  11.3km/h 7.0mph /  11.3km/h 91% 0.00in /  0mm OVC
09:25 71.1 °F /  21.7 °C 68.4 °F /  20.2 °C 30.03in /  1016.8hPa East 8.0mph /  12.9km/h 8.0mph /  12.9km/h 91% 0.00in /  0mm -DZ
09:30 71.2 °F /  21.8 °C 68.4 °F /  20.2 °C 30.03in /  1016.8hPa East 8.0mph /  12.9km/h 8.0mph /  12.9km/h 91% 0.00in /  0mm -DZ
09:40 71.6 °F /  22 °C 68.5 °F /  20.3 °C 30.04in /  1017.2hPa East 8.0mph /  12.9km/h 8.0mph /  12.9km/h 90% 0.00in /  0mm -DZ
09:45 71.7 °F /  22.1 °C 68.6 °F /  20.3 °C 30.04in /  1017.2hPa East 8.0mph /  12.9km/h 8.0mph /  12.9km/h 90% 0.00in /  0mm -DZ
09:50 71.9 °F /  22.2 °C 68.8 °F /  20.4 °C 30.04in /  1017.2hPa East 8.0mph /  12.9km/h 8.0mph /  12.9km/h 90% 0.00in /  0mm -DZ
09:55 72.0 °F /  22.2 °C 68.6 °F /  20.3 °C 30.04in /  1017.2hPa East 8.0mph /  12.9km/h 8.0mph /  12.9km/h 89% 0.00in /  0mm -DZ
10:00 72.1 °F /  22.3 °C 68.7 °F /  20.4 °C 30.04in /  1017.2hPa East 8.0mph /  12.9km/h 8.0mph /  12.9km/h 89% 0.00in /  0mm -DZ
10:05 72.2 °F /  22.3 °C 68.8 °F /  20.4 °C 30.04in /  1017.2hPa East 8.0mph /  12.9km/h 8.0mph /  12.9km/h 89% 0.00in /  0mm -DZ
10:10 72.3 °F /  22.4 °C 68.9 °F /  20.5 °C 30.04in /  1017.2hPa East 8.0mph /  12.9km/h 8.0mph /  12.9km/h 89% 0.00in /  0mm -DZ
10:15 72.4 °F /  22.4 °C 69.0 °F /  20.6 °C 30.04in /  1017.2hPa East 9.0mph /  14.5km/h 9.0mph /  14.5km/h 89% 0.00in /  0mm OVC
10:20 72.4 °F /  22.4 °C 69.0 °F /  20.6 °C 30.04in /  1017.2hPa East 9.0mph /  14.5km/h 9.0mph /  14.5km/h 89% 0.00in /  0mm OVC
10:25 72.6 °F /  22.6 °C 69.1 °F /  20.6 °C 30.04in /  1017.2hPa East 9.0mph /  14.5km/h 9.0mph /  14.5km/h 89% 0.00in /  0mm OVC
10:30 72.7 °F /  22.6 °C 68.9 °F /  20.5 °C 30.04in /  1017.2hPa East 9.0mph /  14.5km/h 9.0mph /  14.5km/h 88% 0.00in /  0mm OVC
10:35 72.8 °F /  22.7 °C 69.1 °F /  20.6 °C 30.04in /  1017.2hPa East 9.0mph /  14.5km/h 9.0mph /  14.5km/h 88% 0.00in /  0mm OVC
10:40 72.9 °F /  22.7 °C 69.1 °F /  20.6 °C 30.04in /  1017.2hPa East 9.0mph /  14.5km/h 9.0mph /  14.5km/h 88% 0.00in /  0mm OVC
10:45 72.9 °F /  22.7 °C 69.1 °F /  20.6 °C 30.04in /  1017.2hPa East 9.0mph /  14.5km/h 9.0mph /  14.5km/h 88% 0.00in /  0mm OVC
10:50 73.0 °F /  22.8 °C 69.2 °F /  20.7 °C 30.03in /  1016.8hPa East 9.0mph /  14.5km/h 9.0mph /  14.5km/h 88% 0.00in /  0mm OVC
10:55 73.1 °F /  22.8 °C 69.3 °F /  20.7 °C 30.04in /  1017.2hPa East 9.0mph /  14.5km/h 9.0mph /  14.5km/h 88% 0.00in /  0mm OVC
11:00 73.3 °F /  22.9 °C 69.5 °F /  20.8 °C 30.03in /  1016.8hPa East 9.0mph /  14.5km/h 9.0mph /  14.5km/h 88% 0.00in /  0mm OVC
11:05 73.4 °F /  23 °C 69.3 °F /  20.7 °C 30.03in /  1016.8hPa East 9.0mph /  14.5km/h 9.0mph /  14.5km/h 87% 0.00in /  0mm OVC
11:10 73.5 °F /  23.1 °C 69.4 °F /  20.8 °C 30.03in /  1016.8hPa East 9.0mph /  14.5km/h 9.0mph /  14.5km/h 87% 0.00in /  0mm OVC
11:15 73.6 °F /  23.1 °C 69.5 °F /  20.8 °C 30.03in /  1016.8hPa ESE 9.0mph /  14.5km/h 9.0mph /  14.5km/h 87% 0.00in /  0mm OVC
11:20 73.8 °F /  23.2 °C 69.3 °F /  20.7 °C 30.03in /  1016.8hPa ESE 9.0mph /  14.5km/h 9.0mph /  14.5km/h 86% 0.00in /  0mm OVC
11:25 74.0 °F /  23.3 °C 69.5 °F /  20.8 °C 30.03in /  1016.8hPa SE 10.0mph /  16.1km/h 10.0mph /  16.1km/h 86% 0.00in /  0mm OVC
11:30 74.0 °F /  23.3 °C 69.5 °F /  20.8 °C 30.03in /  1016.8hPa SE 10.0mph /  16.1km/h 10.0mph /  16.1km/h 86% 0.00in /  0mm OVC
11:35 74.1 °F /  23.4 °C 69.3 °F /  20.7 °C 30.04in /  1017.2hPa SE 10.0mph /  16.1km/h 10.0mph /  16.1km/h 85% 0.00in /  0mm OVC
11:40 74.3 °F /  23.5 °C 69.5 °F /  20.8 °C 30.04in /  1017.2hPa SE 10.0mph /  16.1km/h 10.0mph /  16.1km/h 85% 0.00in /  0mm OVC
11:45 74.4 °F /  23.6 °C 69.6 °F /  20.9 °C 30.03in /  1016.8hPa SE 10.0mph /  16.1km/h 10.0mph /  16.1km/h 85% 0.00in /  0mm OVC
11:50 74.5 °F /  23.6 °C 69.7 °F /  20.9 °C 30.04in /  1017.2hPa SE 10.0mph /  16.1km/h 10.0mph /  16.1km/h 85% 0.00in /  0mm OVC
11:55 74.6 °F /  23.7 °C 69.8 °F /  21 °C 30.04in /  1017.2hPa SE 10.0mph /  16.1km/h 10.0mph /  16.1km/h 85% 0.00in /  0mm OVC
12:00 74.8 °F /  23.8 °C 69.6 °F /  20.9 °C 30.03in /  1016.8hPa SE 10.0mph /  16.1km/h 10.0mph /  16.1km/h 84% 0.00in /  0mm OVC
12:05 74.8 °F /  23.8 °C 69.6 °F /  20.9 °C 30.04in /  1017.2hPa SE 10.0mph /  16.1km/h 10.0mph /  16.1km/h 84% 0.00in /  0mm OVC
12:10 74.8 °F /  23.8 °C 69.6 °F /  20.9 °C 30.04in /  1017.2hPa SE 10.0mph /  16.1km/h 10.0mph /  16.1km/h 84% 0.00in /  0mm OVC
12:15 74.8 °F /  23.8 °C 69.6 °F /  20.9 °C 30.03in /  1016.8hPa SE 7.0mph /  11.3km/h 10.0mph /  16.1km/h 84% 0.00in /  0mm OVC
12:20 74.9 °F /  23.8 °C 69.4 °F /  20.8 °C 30.03in /  1016.8hPa SE 7.0mph /  11.3km/h 7.0mph /  11.3km/h 83% 0.00in /  0mm OVC
12:25 75.1 °F /  23.9 °C 69.9 °F /  21.1 °C 30.03in /  1016.8hPa SE 7.0mph /  11.3km/h 7.0mph /  11.3km/h 84% 0.00in /  0mm OVC
12:30 75.3 °F /  24.1 °C 70.1 °F /  21.2 °C 30.03in /  1016.8hPa SE 7.0mph /  11.3km/h 7.0mph /  11.3km/h 84% 0.00in /  0mm OVC
12:35 75.6 °F /  24.2 °C 70.1 °F /  21.2 °C 30.03in /  1016.8hPa SE 7.0mph /  11.3km/h 7.0mph /  11.3km/h 83% 0.00in /  0mm OVC
12:40 75.9 °F /  24.4 °C 70.0 °F /  21.1 °C 30.02in /  1016.5hPa SE 7.0mph /  11.3km/h 7.0mph /  11.3km/h 82% 0.00in /  0mm OVC
12:45 76.0 °F /  24.4 °C 70.1 °F /  21.2 °C 30.02in /  1016.5hPa SE 7.0mph /  11.3km/h 7.0mph /  11.3km/h 82% 0.00in /  0mm OVC
12:50 76.7 °F /  24.8 °C 70.4 °F /  21.3 °C 30.01in /  1016.1hPa SE 7.0mph /  11.3km/h 7.0mph /  11.3km/h 81% 0.00in /  0mm OVC
12:55 77.7 °F /  25.4 °C 70.3 °F /  21.3 °C 30.02in /  1016.5hPa SE 7.0mph /  11.3km/h 7.0mph /  11.3km/h 78% 0.00in /  0mm OVC
13:00 78.0 °F /  25.6 °C 70.2 °F /  21.2 °C 30.01in /  1016.1hPa SE 7.0mph /  11.3km/h 7.0mph /  11.3km/h 77% 0.00in /  0mm OVC
13:05 78.1 °F /  25.6 °C 70.7 °F /  21.5 °C 30.01in /  1016.1hPa SE 7.0mph /  11.3km/h 7.0mph /  11.3km/h 78% 0.00in /  0mm OVC
13:10 78.0 °F /  25.6 °C 70.2 °F /  21.2 °C 30.01in /  1016.1hPa SE 7.0mph /  11.3km/h 7.0mph /  11.3km/h 77% 0.00in /  0mm OVC
13:15 78.0 °F /  25.6 °C 70.6 °F /  21.4 °C 30.01in /  1016.1hPa ESE 10.0mph /  16.1km/h 10.0mph /  16.1km/h 78% 0.00in /  0mm BKN
13:20 78.5 °F /  25.8 °C 70.7 °F /  21.5 °C 30.00in /  1015.8hPa East 10.0mph /  16.1km/h 10.0mph /  16.1km/h 77% 0.00in /  0mm BKN
13:25 78.9 °F /  26.1 °C 70.3 °F /  21.3 °C 30.00in /  1015.8hPa East 9.0mph /  14.5km/h 10.0mph /  16.1km/h 75% 0.00in /  0mm BKN
13:30 79.3 °F /  26.3 °C 70.3 °F /  21.3 °C 30.00in /  1015.8hPa East 9.0mph /  14.5km/h 9.0mph /  14.5km/h 74% 0.00in /  0mm BKN
13:35 79.5 °F /  26.4 °C 70.5 °F /  21.4 °C 30.00in /  1015.8hPa East 9.0mph /  14.5km/h 9.0mph /  14.5km/h 74% 0.00in /  0mm BKN
13:40 79.1 °F /  26.2 °C 70.9 °F /  21.6 °C 30.00in /  1015.8hPa East 9.0mph /  14.5km/h 9.0mph /  14.5km/h 76% 0.00in /  0mm BKN
13:45 79.0 °F /  26.1 °C 70.4 °F /  21.3 °C 30.00in /  1015.8hPa ESE 10.0mph /  16.1km/h 10.0mph /  16.1km/h 75% 0.00in /  0mm BKN
13:50 79.2 °F /  26.2 °C 70.5 °F /  21.4 °C 30.00in /  1015.8hPa SE 10.0mph /  16.1km/h 10.0mph /  16.1km/h 75% 0.00in /  0mm BKN
14:00 79.3 °F /  26.3 °C 70.3 °F /  21.3 °C 29.99in /  1015.5hPa SE 10.0mph /  16.1km/h 10.0mph /  16.1km/h 74% 0.00in /  0mm BKN
14:05 79.8 °F /  26.6 °C 71.1 °F /  21.7 °C 29.99in /  1015.5hPa SE 10.0mph /  16.1km/h 10.0mph /  16.1km/h 75% 0.00in /  0mm BKN
14:10 80.0 °F /  26.7 °C 70.6 °F /  21.4 °C 29.98in /  1015.1hPa SE 10.0mph /  16.1km/h 10.0mph /  16.1km/h 73% 0.00in /  0mm BKN
14:15 79.8 °F /  26.6 °C 70.4 °F /  21.3 °C 29.98in /  1015.1hPa SE 10.0mph /  16.1km/h 10.0mph /  16.1km/h 73% 0.00in /  0mm BKN
14:20 79.9 °F /  26.6 °C 70.9 °F /  21.6 °C 29.98in /  1015.1hPa ESE 10.0mph /  16.1km/h 10.0mph /  16.1km/h 74% 0.00in /  0mm BKN
14:25 80.4 °F /  26.9 °C 70.2 °F /  21.2 °C 29.98in /  1015.1hPa ESE 10.0mph /  16.1km/h 10.0mph /  16.1km/h 71% 0.00in /  0mm BKN
14:30 80.3 °F /  26.8 °C 70.4 °F /  21.3 °C 29.97in /  1014.8hPa ESE 10.0mph /  16.1km/h 10.0mph /  16.1km/h 72% 0.00in /  0mm BKN
14:40 79.9 °F /  26.6 °C 70.1 °F /  21.2 °C 29.97in /  1014.8hPa ESE 10.0mph /  16.1km/h 10.0mph /  16.1km/h 72% 0.00in /  0mm BKN
14:45 80.2 °F /  26.8 °C 70.3 °F /  21.3 °C 29.97in /  1014.8hPa ESE 10.0mph /  16.1km/h 10.0mph /  16.1km/h 72% 0.00in /  0mm BKN
14:50 80.6 °F /  27 °C 69.9 °F /  21.1 °C 29.98in /  1015.1hPa ESE 10.0mph /  16.1km/h 10.0mph /  16.1km/h 70% 0.00in /  0mm BKN
14:55 80.9 °F /  27.2 °C 70.2 °F /  21.2 °C 29.97in /  1014.8hPa ESE 10.0mph /  16.1km/h 10.0mph /  16.1km/h 70% 0.00in /  0mm BKN
15:00 80.7 °F /  27.1 °C 70.4 °F /  21.3 °C 29.97in /  1014.8hPa ESE 10.0mph /  16.1km/h 10.0mph /  16.1km/h 71% 0.00in /  0mm BKN
15:05 80.3 °F /  26.8 °C 70.8 °F /  21.6 °C 29.97in /  1014.8hPa ESE 10.0mph /  16.1km/h 10.0mph /  16.1km/h 73% 0.00in /  0mm BKN
15:10 79.9 °F /  26.6 °C 70.5 °F /  21.4 °C 29.97in /  1014.8hPa ESE 10.0mph /  16.1km/h 10.0mph /  16.1km/h 73% 0.00in /  0mm BKN
15:15 79.6 °F /  26.4 °C 70.2 °F /  21.2 °C 29.97in /  1014.8hPa ESE 10.0mph /  16.1km/h 10.0mph /  16.1km/h 73% 0.00in /  0mm OVC
15:20 79.5 °F /  26.4 °C 70.5 °F /  21.4 °C 29.96in /  1014.4hPa ESE 10.0mph /  16.1km/h 10.0mph /  16.1km/h 74% 0.00in /  0mm OVC
15:25 79.7 °F /  26.5 °C 70.7 °F /  21.5 °C 29.96in /  1014.4hPa ESE 10.0mph /  16.1km/h 10.0mph /  16.1km/h 74% 0.00in /  0mm OVC
15:30 80.1 °F /  26.7 °C 70.7 °F /  21.5 °C 29.96in /  1014.4hPa ESE 10.0mph /  16.1km/h 10.0mph /  16.1km/h 73% 0.00in /  0mm OVC
15:35 80.3 °F /  26.8 °C 70.9 °F /  21.6 °C 29.96in /  1014.4hPa ESE 10.0mph /  16.1km/h 10.0mph /  16.1km/h 73% 0.00in /  0mm OVC
15:40 80.3 °F /  26.8 °C 70.0 °F /  21.1 °C 29.96in /  1014.4hPa ESE 10.0mph /  16.1km/h 10.0mph /  16.1km/h 71% 0.00in /  0mm OVC
15:45 80.1 °F /  26.7 °C 69.4 °F /  20.8 °C 29.96in /  1014.4hPa ESE 10.0mph /  16.1km/h 10.0mph /  16.1km/h 70% 0.00in /  0mm OVC
15:50 79.9 °F /  26.6 °C 70.1 °F /  21.2 °C 29.95in /  1014.1hPa ESE 10.0mph /  16.1km/h 10.0mph /  16.1km/h 72% 0.00in /  0mm OVC
15:55 79.8 °F /  26.6 °C 70.4 °F /  21.3 °C 29.95in /  1014.1hPa ESE 10.0mph /  16.1km/h 10.0mph /  16.1km/h 73% 0.00in /  0mm OVC
16:00 79.7 °F /  26.5 °C 70.3 °F /  21.3 °C 29.95in /  1014.1hPa ESE 10.0mph /  16.1km/h 10.0mph /  16.1km/h 73% 0.00in /  0mm OVC
16:05 79.7 °F /  26.5 °C 70.3 °F /  21.3 °C 29.95in /  1014.1hPa ESE 10.0mph /  16.1km/h 10.0mph /  16.1km/h 73% 0.00in /  0mm OVC
16:10 79.6 °F /  26.4 °C 70.2 °F /  21.2 °C 29.95in /  1014.1hPa ESE 10.0mph /  16.1km/h 10.0mph /  16.1km/h 73% 0.00in /  0mm OVC
16:15 79.5 °F /  26.4 °C 70.5 °F /  21.4 °C 29.95in /  1014.1hPa SE 9.0mph /  14.5km/h 10.0mph /  16.1km/h 74% 0.00in /  0mm OVC
16:20 79.5 °F /  26.4 °C 70.4 °F /  21.3 °C 29.95in /  1014.1hPa SE 9.0mph /  14.5km/h 9.0mph /  14.5km/h 74% 0.00in /  0mm OVC
16:25 79.5 °F /  26.4 °C 70.1 °F /  21.2 °C 29.95in /  1014.1hPa SE 9.0mph /  14.5km/h 9.0mph /  14.5km/h 73% 0.00in /  0mm OVC
16:30 79.5 °F /  26.4 °C 70.5 °F /  21.4 °C 29.95in /  1014.1hPa SE 9.0mph /  14.5km/h 9.0mph /  14.5km/h 74% 0.00in /  0mm OVC
16:35 79.5 °F /  26.4 °C 70.5 °F /  21.4 °C 29.95in /  1014.1hPa SE 9.0mph /  14.5km/h 9.0mph /  14.5km/h 74% 0.00in /  0mm OVC
16:40 79.4 °F /  26.3 °C 70.4 °F /  21.3 °C 29.95in /  1014.1hPa SE 9.0mph /  14.5km/h 9.0mph /  14.5km/h 74% 0.00in /  0mm OVC
16:45 79.3 °F /  26.3 °C 70.3 °F /  21.3 °C 29.95in /  1014.1hPa SE 9.0mph /  14.5km/h 9.0mph /  14.5km/h 74% 0.00in /  0mm OVC
16:50 79.2 °F /  26.2 °C 70.6 °F /  21.4 °C 29.95in /  1014.1hPa SE 9.0mph /  14.5km/h 9.0mph /  14.5km/h 75% 0.00in /  0mm OVC
16:55 79.1 °F /  26.2 °C 70.5 °F /  21.4 °C 29.95in /  1014.1hPa SE 9.0mph /  14.5km/h 9.0mph /  14.5km/h 75% 0.00in /  0mm OVC
17:00 79.0 °F /  26.1 °C 70.4 °F /  21.3 °C 29.95in /  1014.1hPa SE 9.0mph /  14.5km/h 9.0mph /  14.5km/h 75% 0.00in /  0mm OVC
17:05 78.8 °F /  26 °C 70.6 °F /  21.4 °C 29.94in /  1013.8hPa SE 9.0mph /  14.5km/h 9.0mph /  14.5km/h 76% 0.00in /  0mm OVC
17:10 78.6 °F /  25.9 °C 70.4 °F /  21.3 °C 29.94in /  1013.8hPa SE 9.0mph /  14.5km/h 9.0mph /  14.5km/h 76% 0.00in /  0mm OVC
17:15 78.5 °F /  25.8 °C 70.3 °F /  21.3 °C 29.94in /  1013.8hPa SE 9.0mph /  14.5km/h 9.0mph /  14.5km/h 76% 0.00in /  0mm OVC
17:20 78.3 °F /  25.7 °C 70.1 °F /  21.2 °C 29.94in /  1013.8hPa ESE 9.0mph /  14.5km/h 9.0mph /  14.5km/h 76% 0.00in /  0mm OVC
17:25 78.2 °F /  25.7 °C 70.4 °F /  21.3 °C 29.94in /  1013.8hPa ESE 9.0mph /  14.5km/h 9.0mph /  14.5km/h 77% 0.00in /  0mm OVC
17:30 78.1 °F /  25.6 °C 70.3 °F /  21.3 °C 29.93in /  1013.4hPa ESE 9.0mph /  14.5km/h 9.0mph /  14.5km/h 77% 0.00in /  0mm OVC
17:35 78.1 °F /  25.6 °C 70.3 °F /  21.3 °C 29.93in /  1013.4hPa ESE 9.0mph /  14.5km/h 9.0mph /  14.5km/h 77% 0.00in /  0mm OVC
17:40 78.1 °F /  25.6 °C 70.3 °F /  21.3 °C 29.93in /  1013.4hPa ESE 9.0mph /  14.5km/h 9.0mph /  14.5km/h 77% 0.00in /  0mm OVC
17:45 78.1 °F /  25.6 °C 70.3 °F /  21.3 °C 29.93in /  1013.4hPa ESE 9.0mph /  14.5km/h 9.0mph /  14.5km/h 77% 0.00in /  0mm OVC
17:50 78.0 °F /  25.6 °C 70.2 °F /  21.2 °C 29.93in /  1013.4hPa ESE 9.0mph /  14.5km/h 9.0mph /  14.5km/h 77% 0.00in /  0mm OVC
17:55 78.0 °F /  25.6 °C 70.2 °F /  21.2 °C 29.92in /  1013.1hPa ESE 9.0mph /  14.5km/h 9.0mph /  14.5km/h 77% 0.00in /  0mm OVC
18:00 77.9 °F /  25.5 °C 70.5 °F /  21.4 °C 29.92in /  1013.1hPa ESE 9.0mph /  14.5km/h 9.0mph /  14.5km/h 78% 0.00in /  0mm OVC
18:05 77.8 °F /  25.4 °C 70.4 °F /  21.3 °C 29.92in /  1013.1hPa ESE 9.0mph /  14.5km/h 9.0mph /  14.5km/h 78% 0.00in /  0mm OVC
18:10 77.6 °F /  25.3 °C 70.2 °F /  21.2 °C 29.92in /  1013.1hPa ESE 9.0mph /  14.5km/h 9.0mph /  14.5km/h 78% 0.00in /  0mm OVC
18:15 77.5 °F /  25.3 °C 70.1 °F /  21.2 °C 29.92in /  1013.1hPa ESE 12.0mph /  19.3km/h 12.0mph /  19.3km/h 78% 0.00in /  0mm OVC
18:20 77.4 °F /  25.2 °C 70.3 °F /  21.3 °C 29.93in /  1013.4hPa East 12.0mph /  19.3km/h 12.0mph /  19.3km/h 79% 0.00in /  0mm OVC
18:25 77.2 °F /  25.1 °C 70.2 °F /  21.2 °C 29.93in /  1013.4hPa East 12.0mph /  19.3km/h 12.0mph /  19.3km/h 79% 0.00in /  0mm OVC
18:30 77.1 °F /  25.1 °C 70.1 °F /  21.2 °C 29.93in /  1013.4hPa East 12.0mph /  19.3km/h 12.0mph /  19.3km/h 79% 0.00in /  0mm OVC
18:35 77.0 °F /  25 °C 70.0 °F /  21.1 °C 29.93in /  1013.4hPa East 12.0mph /  19.3km/h 12.0mph /  19.3km/h 79% 0.00in /  0mm OVC
18:40 76.9 °F /  24.9 °C 69.9 °F /  21.1 °C 29.93in /  1013.4hPa East 12.0mph /  19.3km/h 12.0mph /  19.3km/h 79% 0.00in /  0mm OVC
18:45 76.9 °F /  24.9 °C 70.2 °F /  21.2 °C 29.93in /  1013.4hPa East 12.0mph /  19.3km/h 12.0mph /  19.3km/h 80% 0.00in /  0mm OVC
18:50 76.8 °F /  24.9 °C 70.2 °F /  21.2 °C 29.93in /  1013.4hPa East 12.0mph /  19.3km/h 12.0mph /  19.3km/h 80% 0.00in /  0mm OVC
18:55 76.7 °F /  24.8 °C 70.1 °F /  21.2 °C 29.93in /  1013.4hPa East 12.0mph /  19.3km/h 12.0mph /  19.3km/h 80% 0.00in /  0mm OVC
19:00 76.6 °F /  24.8 °C 70.0 °F /  21.1 °C 29.93in /  1013.4hPa East 12.0mph /  19.3km/h 12.0mph /  19.3km/h 80% 0.00in /  0mm OVC
19:05 76.5 °F /  24.7 °C 69.9 °F /  21.1 °C 29.93in /  1013.4hPa East 12.0mph /  19.3km/h 12.0mph /  19.3km/h 80% 0.00in /  0mm OVC
19:10 76.4 °F /  24.7 °C 70.1 °F /  21.2 °C 29.93in /  1013.4hPa East 12.0mph /  19.3km/h 12.0mph /  19.3km/h 81% 0.00in /  0mm OVC
19:15 76.3 °F /  24.6 °C 70.0 °F /  21.1 °C 29.93in /  1013.4hPa East 12.0mph /  19.3km/h 12.0mph /  19.3km/h 81% 0.00in /  0mm OVC
19:20 76.2 °F /  24.6 °C 69.9 °F /  21.1 °C 29.93in /  1013.4hPa East 12.0mph /  19.3km/h 12.0mph /  19.3km/h 81% 0.00in /  0mm OVC
19:25 76.1 °F /  24.5 °C 70.2 °F /  21.2 °C 29.94in /  1013.8hPa East 12.0mph /  19.3km/h 12.0mph /  19.3km/h 82% 0.00in /  0mm OVC
19:30 76.0 °F /  24.4 °C 70.1 °F /  21.2 °C 29.93in /  1013.4hPa East 12.0mph /  19.3km/h 12.0mph /  19.3km/h 82% 0.00in /  0mm OVC
19:35 76.0 °F /  24.4 °C 70.1 °F /  21.2 °C 29.93in /  1013.4hPa East 12.0mph /  19.3km/h 12.0mph /  19.3km/h 82% 0.00in /  0mm OVC
19:45 75.8 °F /  24.3 °C 69.9 °F /  21.1 °C 29.92in /  1013.1hPa East 12.0mph /  19.3km/h 12.0mph /  19.3km/h 82% 0.00in /  0mm OVC
19:50 75.7 °F /  24.3 °C 69.8 °F /  21 °C 29.92in /  1013.1hPa East 12.0mph /  19.3km/h 12.0mph /  19.3km/h 82% 0.00in /  0mm OVC
19:55 75.6 °F /  24.2 °C 70.1 °F /  21.2 °C 29.93in /  1013.4hPa East 12.0mph /  19.3km/h 12.0mph /  19.3km/h 83% 0.00in /  0mm OVC
20:00 75.5 °F /  24.2 °C 70.0 °F /  21.1 °C 29.93in /  1013.4hPa East 12.0mph /  19.3km/h 12.0mph /  19.3km/h 83% 0.00in /  0mm OVC
20:05 75.5 °F /  24.2 °C 70.0 °F /  21.1 °C 29.94in /  1013.8hPa East 12.0mph /  19.3km/h 12.0mph /  19.3km/h 83% 0.00in /  0mm OVC
20:10 75.5 °F /  24.2 °C 70.0 °F /  21.1 °C 29.94in /  1013.8hPa East 12.0mph /  19.3km/h 12.0mph /  19.3km/h 83% 0.00in /  0mm OVC
20:15 75.4 °F /  24.1 °C 69.9 °F /  21.1 °C 29.94in /  1013.8hPa East 9.0mph /  14.5km/h 12.0mph /  19.3km/h 83% 0.00in /  0mm OVC
20:20 75.3 °F /  24.1 °C 69.8 °F /  21 °C 29.95in /  1014.1hPa East 9.0mph /  14.5km/h 9.0mph /  14.5km/h 83% 0.00in /  0mm OVC
20:25 75.3 °F /  24.1 °C 70.1 °F /  21.2 °C 29.95in /  1014.1hPa East 9.0mph /  14.5km/h 9.0mph /  14.5km/h 84% 0.00in /  0mm OVC
20:30 75.1 °F /  23.9 °C 69.9 °F /  21.1 °C 29.95in /  1014.1hPa East 9.0mph /  14.5km/h 9.0mph /  14.5km/h 84% 0.00in /  0mm OVC
20:35 75.1 °F /  23.9 °C 69.9 °F /  21.1 °C 29.94in /  1013.8hPa East 9.0mph /  14.5km/h 9.0mph /  14.5km/h 84% 0.00in /  0mm OVC
20:40 75.0 °F /  23.9 °C 69.8 °F /  21 °C 29.95in /  1014.1hPa East 9.0mph /  14.5km/h 9.0mph /  14.5km/h 84% 0.00in /  0mm OVC
20:45 74.9 °F /  23.8 °C 69.7 °F /  20.9 °C 29.95in /  1014.1hPa East 9.0mph /  14.5km/h 9.0mph /  14.5km/h 84% 0.00in /  0mm OVC
20:50 74.9 °F /  23.8 °C 70.1 °F /  21.2 °C 29.95in /  1014.1hPa East 9.0mph /  14.5km/h 9.0mph /  14.5km/h 85% 0.00in /  0mm OVC
20:55 74.8 °F /  23.8 °C 70.0 °F /  21.1 °C 29.95in /  1014.1hPa East 9.0mph /  14.5km/h 9.0mph /  14.5km/h 85% 0.00in /  0mm OVC
21:00 74.8 °F /  23.8 °C 70.0 °F /  21.1 °C 29.95in /  1014.1hPa East 9.0mph /  14.5km/h 9.0mph /  14.5km/h 85% 0.00in /  0mm OVC
21:05 74.8 °F /  23.8 °C 70.0 °F /  21.1 °C 29.95in /  1014.1hPa East 9.0mph /  14.5km/h 9.0mph /  14.5km/h 85% 0.00in /  0mm OVC
21:10 74.8 °F /  23.8 °C 70.0 °F /  21.1 °C 29.95in /  1014.1hPa East 9.0mph /  14.5km/h 9.0mph /  14.5km/h 85% 0.00in /  0mm OVC
21:15 74.7 °F /  23.7 °C 69.9 °F /  21.1 °C 29.95in /  1014.1hPa East 10.0mph /  16.1km/h 10.0mph /  16.1km/h 85% 0.00in /  0mm OVC
21:20 74.7 °F /  23.7 °C 69.9 °F /  21.1 °C 29.95in /  1014.1hPa East 10.0mph /  16.1km/h 10.0mph /  16.1km/h 85% 0.00in /  0mm OVC
21:25 74.7 °F /  23.7 °C 69.9 °F /  21.1 °C 29.95in /  1014.1hPa East 10.0mph /  16.1km/h 10.0mph /  16.1km/h 85% 0.00in /  0mm OVC
21:30 74.7 °F /  23.7 °C 69.9 °F /  21.1 °C 29.95in /  1014.1hPa East 10.0mph /  16.1km/h 10.0mph /  16.1km/h 85% 0.00in /  0mm OVC
21:35 74.6 °F /  23.7 °C 69.8 °F /  21 °C 29.95in /  1014.1hPa East 10.0mph /  16.1km/h 10.0mph /  16.1km/h 85% 0.00in /  0mm OVC
21:45 74.6 °F /  23.7 °C 69.8 °F /  21 °C 29.96in /  1014.4hPa East 10.0mph /  16.1km/h 10.0mph /  16.1km/h 85% 0.00in /  0mm OVC
21:50 74.5 °F /  23.6 °C 69.7 °F /  20.9 °C 29.96in /  1014.4hPa East 10.0mph /  16.1km/h 10.0mph /  16.1km/h 85% 0.00in /  0mm OVC
21:55 74.5 °F /  23.6 °C 69.7 °F /  20.9 °C 29.96in /  1014.4hPa East 10.0mph /  16.1km/h 10.0mph /  16.1km/h 85% 0.00in /  0mm OVC
22:00 74.4 °F /  23.6 °C 69.9 °F /  21.1 °C 29.96in /  1014.4hPa East 10.0mph /  16.1km/h 10.0mph /  16.1km/h 86% 0.00in /  0mm OVC
22:05 74.5 °F /  23.6 °C 69.7 °F /  20.9 °C 29.96in /  1014.4hPa East 10.0mph /  16.1km/h 10.0mph /  16.1km/h 85% 0.00in /  0mm OVC
22:10 74.5 °F /  23.6 °C 69.7 °F /  20.9 °C 29.96in /  1014.4hPa East 10.0mph /  16.1km/h 10.0mph /  16.1km/h 85% 0.00in /  0mm OVC
22:15 74.5 °F /  23.6 °C 69.7 °F /  20.9 °C 29.96in /  1014.4hPa East 10.0mph /  16.1km/h 10.0mph /  16.1km/h 85% 0.00in /  0mm OVC
22:20 74.5 °F /  23.6 °C 69.7 °F /  20.9 °C 29.96in /  1014.4hPa East 10.0mph /  16.1km/h 10.0mph /  16.1km/h 85% 0.00in /  0mm OVC
22:25 74.4 °F /  23.6 °C 70.0 °F /  21.1 °C 29.96in /  1014.4hPa East 10.0mph /  16.1km/h 10.0mph /  16.1km/h 86% 0.00in /  0mm OVC
22:30 74.4 °F /  23.6 °C 69.9 °F /  21.1 °C 29.96in /  1014.4hPa East 10.0mph /  16.1km/h 10.0mph /  16.1km/h 86% 0.00in /  0mm OVC
22:40 74.2 °F /  23.4 °C 69.7 °F /  20.9 °C 29.96in /  1014.4hPa East 10.0mph /  16.1km/h 10.0mph /  16.1km/h 86% 0.00in /  0mm OVC
22:45 74.1 °F /  23.4 °C 69.7 °F /  20.9 °C 29.96in /  1014.4hPa East 10.0mph /  16.1km/h 10.0mph /  16.1km/h 86% 0.00in /  0mm OVC
22:50 74.1 °F /  23.4 °C 69.6 °F /  20.9 °C 29.96in /  1014.4hPa East 10.0mph /  16.1km/h 10.0mph /  16.1km/h 86% 0.00in /  0mm OVC
22:55 74.1 °F /  23.4 °C 70.0 °F /  21.1 °C 29.96in /  1014.4hPa East 10.0mph /  16.1km/h 10.0mph /  16.1km/h 87% 0.00in /  0mm OVC
23:00 74.0 °F /  23.3 °C 69.9 °F /  21.1 °C 29.96in /  1014.4hPa East 10.0mph /  16.1km/h 10.0mph /  16.1km/h 87% 0.00in /  0mm OVC
23:05 74.0 °F /  23.3 °C 69.9 °F /  21.1 °C 29.96in /  1014.4hPa East 10.0mph /  16.1km/h 10.0mph /  16.1km/h 87% 0.00in /  0mm OVC
23:10 74.0 °F /  23.3 °C 69.9 °F /  21.1 °C 29.96in /  1014.4hPa East 10.0mph /  16.1km/h 10.0mph /  16.1km/h 87% 0.00in /  0mm OVC
23:15 74.0 °F /  23.3 °C 69.9 °F /  21.1 °C 29.96in /  1014.4hPa East 8.0mph /  12.9km/h 10.0mph /  16.1km/h 87% 0.00in /  0mm OVC
23:20 74.0 °F /  23.3 °C 69.6 °F /  20.9 °C 29.96in /  1014.4hPa East 8.0mph /  12.9km/h 8.0mph /  12.9km/h 86% 0.00in /  0mm OVC
23:25 74.1 °F /  23.4 °C 69.6 °F /  20.9 °C 29.96in /  1014.4hPa East 8.0mph /  12.9km/h 8.0mph /  12.9km/h 86% 0.00in /  0mm OVC
23:30 74.1 °F /  23.4 °C 69.6 °F /  20.9 °C 29.96in /  1014.4hPa East 8.0mph /  12.9km/h 8.0mph /  12.9km/h 86% 0.00in /  0mm OVC
23:35 74.0 °F /  23.3 °C 69.9 °F /  21.1 °C 29.96in /  1014.4hPa East 8.0mph /  12.9km/h 8.0mph /  12.9km/h 87% 0.00in /  0mm OVC
23:40 74.1 °F /  23.4 °C 69.9 °F /  21.1 °C 29.96in /  1014.4hPa East 8.0mph /  12.9km/h 8.0mph /  12.9km/h 87% 0.00in /  0mm OVC
23:45 74.1 °F /  23.4 °C 70.0 °F /  21.1 °C 29.96in /  1014.4hPa East 8.0mph /  12.9km/h 8.0mph /  12.9km/h 87% 0.00in /  0mm OVC
23:50 74.1 °F /  23.4 °C 70.0 °F /  21.1 °C 29.96in /  1014.4hPa East 8.0mph /  12.9km/h 8.0mph /  12.9km/h 87% 0.00in /  0mm OVC
23:55 74.1 °F /  23.4 °C 70.0 °F /  21.1 °C 29.96in /  1014.4hPa East 8.0mph /  12.9km/h 8.0mph /  12.9km/h 87% 0.00in /  0mm OVC
Piedmont Bend
Compliments of Weather Underground - 4 mb